Time;durP1;ratioP1;P1;durP2;ratioP2;P2;SDS_P1;SDS_P2;PMS_P1;PMS_P2;Temp;Humidity;BMP_temperature;BMP_pressure;BME280_temperature;BME280_humidity;BME280_pressure;Samples;Min_cycle;Max_cycle;Signal;HPM_P1;HPM_P2
2021/10/22 00:00:21;;;;;;;14.98;13.00;;;16.60;96.70;;;;;;5100307;28;20397;-88
2021/10/22 00:02:50;;;;;;;15.02;12.43;;;16.50;96.70;;;;;;5101779;28;20044;-87
2021/10/22 00:05:18;;;;;;;14.82;13.05;;;16.40;96.70;;;;;;5083164;28;20048;-88
2021/10/22 00:07:47;;;;;;;15.05;11.35;;;16.40;96.70;;;;;;5077361;28;20130;-87
2021/10/22 00:10:16;;;;;;;14.40;11.85;;;16.40;96.70;;;;;;5084140;28;20052;-87
2021/10/22 00:12:44;;;;;;;14.23;11.48;;;16.40;96.70;;;;;;5096485;28;20027;-87
2021/10/22 00:15:13;;;;;;;12.50;11.25;;;16.40;96.70;;;;;;5097748;28;20035;-87
2021/10/22 00:17:43;;;;;;;13.45;11.05;;;16.40;96.70;;;;;;5084469;28;20286;-87
2021/10/22 00:20:11;;;;;;;16.35;11.85;;;16.30;96.70;;;;;;5102019;28;20074;-88
2021/10/22 00:22:39;;;;;;;13.43;10.75;;;16.30;96.70;;;;;;5080898;28;20051;-88
2021/10/22 00:25:08;;;;;;;15.95;11.10;;;16.30;96.70;;;;;;5096679;27;20056;-88
2021/10/22 00:27:36;;;;;;;14.63;10.52;;;16.30;96.70;;;;;;5084245;28;20611;-87
2021/10/22 00:30:06;;;;;;;13.93;10.30;;;16.30;96.70;;;;;;5101551;28;20324;-88
2021/10/22 00:32:34;;;;;;;14.18;10.45;;;16.30;96.70;;;;;;5099345;27;20241;-88
2021/10/22 00:35:05;;;;;;;12.02;9.95;;;16.30;96.70;;;;;;5087104;28;20040;-88
2021/10/22 00:37:33;;;;;;;12.00;10.25;;;16.30;96.70;;;;;;5100629;28;20052;-88
2021/10/22 00:40:01;;;;;;;10.85;9.75;;;16.30;96.70;;;;;;5085357;28;20566;-87
2021/10/22 00:42:29;;;;;;;13.25;9.98;;;16.20;96.70;;;;;;5101628;28;20083;-87
2021/10/22 00:44:58;;;;;;;14.35;10.63;;;16.20;96.70;;;;;;5101773;28;20067;-88
2021/10/22 00:47:26;;;;;;;12.40;9.82;;;16.20;96.70;;;;;;5096721;28;20270;-88
2021/10/22 00:49:54;;;;;;;13.52;11.30;;;16.10;96.70;;;;;;5099524;28;20061;-87
2021/10/22 00:52:27;;;;;;;10.93;9.77;;;16.10;96.70;;;;;;5098726;28;20059;-87
2021/10/22 00:54:57;;;;;;;12.10;10.68;;;16.10;96.70;;;;;;5097414;28;20047;-86
2021/10/22 00:57:25;;;;;;;11.93;10.70;;;16.10;96.70;;;;;;5100916;28;20043;-88
2021/10/22 00:59:53;;;;;;;12.82;11.05;;;16.00;96.70;;;;;;5099899;28;20051;-87
2021/10/22 01:02:21;;;;;;;12.93;10.93;;;16.00;96.70;;;;;;5097267;27;20150;-87
2021/10/22 01:04:49;;;;;;;11.85;10.65;;;16.00;96.70;;;;;;5084488;28;20071;-87
2021/10/22 01:07:18;;;;;;;14.05;11.55;;;16.10;96.70;;;;;;5103425;28;20047;-87
2021/10/22 01:09:47;;;;;;;13.45;11.70;;;16.10;96.70;;;;;;5095578;28;20045;-88
2021/10/22 01:12:16;;;;;;;16.05;12.95;;;16.10;96.70;;;;;;5077427;28;20044;-87
2021/10/22 01:14:44;;;;;;;15.50;12.43;;;16.10;96.70;;;;;;5100825;28;20115;-87
2021/10/22 01:17:32;;;;;;;13.85;11.40;;;16.10;96.70;;;;;;5100834;28;20099;-88
2021/10/22 01:20:00;;;;;;;15.38;12.07;;;16.10;96.70;;;;;;5114479;27;20067;-87
2021/10/22 01:22:29;;;;;;;15.45;12.50;;;16.10;96.70;;;;;;5100243;28;20067;-88
2021/10/22 01:24:57;;;;;;;17.08;11.50;;;16.10;96.70;;;;;;5098816;28;20119;-87
2021/10/22 01:27:26;;;;;;;15.40;11.65;;;16.10;96.70;;;;;;5095949;28;20165;-87
2021/10/22 01:29:54;;;;;;;13.38;12.05;;;16.00;96.70;;;;;;5101886;28;20122;-87
2021/10/22 01:32:22;;;;;;;18.83;12.57;;;16.00;96.70;;;;;;5099513;28;20050;-88
2021/10/22 01:34:50;;;;;;;13.32;11.93;;;16.00;96.70;;;;;;5084709;28;20039;-88
2021/10/22 01:37:21;;;;;;;13.57;11.65;;;16.00;96.70;;;;;;5084948;28;20056;-87
2021/10/22 01:39:53;;;;;;;16.77;12.85;;;16.00;96.70;;;;;;5099941;28;20048;-87
2021/10/22 01:42:22;;;;;;;14.68;12.20;;;16.00;96.70;;;;;;5088264;28;20043;-87
2021/10/22 01:44:50;;;;;;;12.50;11.30;;;16.00;96.70;;;;;;5097089;28;20044;-86
2021/10/22 01:47:19;;;;;;;13.60;10.95;;;16.00;96.70;;;;;;5101254;28;20130;-87
2021/10/22 01:49:47;;;;;;;13.52;10.95;;;16.00;96.70;;;;;;5084060;28;20075;-87
2021/10/22 01:52:15;;;;;;;14.50;11.20;;;15.90;96.70;;;;;;5084749;28;20044;-87
2021/10/22 01:54:44;;;;;;;12.38;11.07;;;15.90;96.70;;;;;;5095951;28;20505;-88
2021/10/22 01:57:14;;;;;;;11.70;10.18;;;15.90;96.70;;;;;;5098226;28;20290;-87
2021/10/22 01:59:46;;;;;;;12.15;10.85;;;16.00;96.70;;;;;;5073692;28;20082;-87
2021/10/22 02:02:14;;;;;;;12.30;9.98;;;16.00;96.70;;;;;;5078627;28;20036;-87
2021/10/22 02:04:42;;;;;;;12.68;10.70;;;15.90;96.70;;;;;;5098366;28;20061;-87
2021/10/22 02:07:11;;;;;;;11.55;10.38;;;15.90;96.70;;;;;;5113808;28;20049;-87
2021/10/22 02:09:39;;;;;;;10.82;9.73;;;15.90;96.70;;;;;;5094694;28;20370;-87
2021/10/22 02:12:07;;;;;;;11.20;10.20;;;15.90;96.70;;;;;;5083766;28;20247;-87
2021/10/22 02:14:37;;;;;;;10.95;9.95;;;15.90;96.70;;;;;;5099354;28;20126;-87
2021/10/22 02:17:05;;;;;;;12.05;10.75;;;15.90;96.70;;;;;;5091645;28;20062;-88
2021/10/22 02:19:33;;;;;;;11.32;10.23;;;15.90;96.70;;;;;;5114429;28;20055;-87
2021/10/22 02:22:01;;;;;;;10.88;9.77;;;15.90;96.70;;;;;;5086036;28;20096;-87
2021/10/22 02:24:29;;;;;;;11.10;9.85;;;15.90;96.70;;;;;;5088348;28;20073;-87
2021/10/22 02:26:57;;;;;;;11.50;10.40;;;15.90;96.70;;;;;;5102313;28;20040;-87
2021/10/22 02:29:25;;;;;;;10.70;9.70;;;15.90;96.70;;;;;;5101489;28;20434;-88
2021/10/22 02:31:55;;;;;;;10.48;9.48;;;15.90;96.70;;;;;;5086532;28;20479;-88
2021/10/22 02:34:23;;;;;;;9.55;8.68;;;15.90;96.70;;;;;;5085566;28;20067;-88
2021/10/22 02:36:52;;;;;;;10.77;9.70;;;15.90;96.70;;;;;;5085854;28;20136;-88
2021/10/22 02:39:20;;;;;;;10.05;9.00;;;15.90;96.70;;;;;;5088301;28;20446;-88
2021/10/22 02:41:48;;;;;;;11.40;10.15;;;16.00;96.70;;;;;;5100525;28;20027;-87
2021/10/22 02:44:16;;;;;;;11.60;9.95;;;15.90;96.70;;;;;;5100830;27;20052;-88
2021/10/22 02:46:44;;;;;;;10.48;9.38;;;15.90;96.70;;;;;;5103787;28;20046;-88
2021/10/22 02:49:14;;;;;;;10.70;9.70;;;15.90;96.70;;;;;;5102105;28;20063;-88
2021/10/22 02:51:43;;;;;;;10.98;9.90;;;15.90;96.70;;;;;;5098946;28;20048;-88
2021/10/22 02:54:11;;;;;;;10.95;9.82;;;15.90;96.70;;;;;;5087822;28;20046;-87
2021/10/22 02:56:39;;;;;;;11.80;10.60;;;15.90;96.70;;;;;;5087877;28;20068;-88
2021/10/22 02:59:07;;;;;;;11.05;10.05;;;15.90;96.70;;;;;;5099864;28;20050;-88
2021/10/22 03:01:35;;;;;;;12.27;10.73;;;15.90;96.70;;;;;;5102742;28;20131;-88
2021/10/22 03:04:03;;;;;;;11.32;9.77;;;15.90;96.70;;;;;;5103374;28;20528;-88
2021/10/22 03:06:33;;;;;;;11.80;10.68;;;15.90;96.70;;;;;;5103009;28;20036;-88
2021/10/22 03:09:01;;;;;;;11.60;10.50;;;15.90;96.70;;;;;;5103934;28;20051;-88
2021/10/22 03:11:30;;;;;;;12.07;10.45;;;15.90;96.70;;;;;;5085456;28;20050;-88
2021/10/22 03:13:58;;;;;;;11.77;10.57;;;15.90;96.70;;;;;;5104404;28;20052;-88
2021/10/22 03:16:26;;;;;;;12.65;10.77;;;15.90;96.70;;;;;;5084081;28;20040;-89
2021/10/22 03:18:54;;;;;;;11.30;10.13;;;15.90;96.70;;;;;;5103639;28;20047;-88
2021/10/22 03:21:23;;;;;;;12.85;10.77;;;15.90;96.70;;;;;;5081575;28;20050;-89
2021/10/22 03:23:55;;;;;;;12.88;10.73;;;15.80;96.70;;;;;;5090650;28;20170;-89
2021/10/22 03:26:24;;;;;;;12.02;10.52;;;15.80;96.70;;;;;;5104172;28;20039;-89
2021/10/22 03:28:52;;;;;;;11.10;10.00;;;15.80;96.70;;;;;;5102313;28;20040;-89
2021/10/22 03:31:20;;;;;;;11.45;10.35;;;15.80;96.70;;;;;;5086348;28;20473;-89
2021/10/22 03:33:49;;;;;;;12.00;10.90;;;15.80;96.70;;;;;;5085276;28;20401;-89
2021/10/22 03:36:17;;;;;;;17.75;15.68;;;15.80;96.70;;;;;;5088376;27;20053;-89
2021/10/22 03:38:45;;;;;;;21.65;19.42;;;15.80;96.70;;;;;;5099283;27;20051;-88
2021/10/22 03:41:15;;;;;;;19.45;17.42;;;15.80;96.70;;;;;;5105279;27;20100;-89
2021/10/22 03:43:43;;;;;;;16.63;14.93;;;15.80;96.70;;;;;;5090173;27;20119;-88
2021/10/22 03:46:11;;;;;;;16.05;14.35;;;15.80;96.70;;;;;;5124646;27;20546;-89
2021/10/22 03:48:40;;;;;;;15.27;13.77;;;15.80;96.70;;;;;;5091288;27;20330;-89
2021/10/22 03:51:08;;;;;;;13.73;12.32;;;15.80;96.70;;;;;;5089341;27;20055;-89
2021/10/22 03:53:36;;;;;;;13.52;12.13;;;15.80;96.70;;;;;;5103681;27;20047;-90
2021/10/22 03:56:04;;;;;;;12.45;11.25;;;15.90;96.70;;;;;;5089144;27;20039;-88
2021/10/22 03:58:34;;;;;;;12.27;11.07;;;15.90;96.70;;;;;;5106104;27;20334;-89
2021/10/22 04:01:02;;;;;;;11.75;10.55;;;15.90;96.70;;;;;;5106130;27;20527;-89
2021/10/22 04:03:30;;;;;;;12.40;10.27;;;15.80;96.70;;;;;;5121891;27;20088;-89
2021/10/22 04:05:58;;;;;;;11.50;10.43;;;15.80;96.70;;;;;;5088649;27;20104;-89
2021/10/22 04:08:28;;;;;;;11.48;10.35;;;15.80;96.70;;;;;;5089710;27;20047;-87
2021/10/22 04:10:57;;;;;;;11.18;10.18;;;15.80;96.70;;;;;;5106400;27;20042;-89
2021/10/22 04:13:25;;;;;;;11.50;10.40;;;15.80;96.70;;;;;;5089371;27;20445;-89
2021/10/22 04:15:55;;;;;;;10.10;9.10;;;15.70;96.70;;;;;;5106547;27;20039;-89
2021/10/22 04:18:23;;;;;;;10.82;9.80;;;15.70;96.70;;;;;;5102890;27;20043;-89
2021/10/22 04:20:51;;;;;;;11.05;9.95;;;15.70;96.70;;;;;;5086955;27;20129;-89
2021/10/22 04:23:19;;;;;;;10.93;9.82;;;15.70;96.70;;;;;;5124165;27;21715;-88
2021/10/22 04:25:49;;;;;;;10.07;9.07;;;15.70;96.70;;;;;;5099869;27;20574;-87
2021/10/22 04:28:17;;;;;;;11.27;9.02;;;15.70;96.70;;;;;;5104356;27;20043;-89
2021/10/22 04:30:45;;;;;;;10.95;8.23;;;15.60;96.70;;;;;;5105442;27;20134;-88
2021/10/22 04:33:15;;;;;;;8.77;7.97;;;15.60;96.70;;;;;;5104600;27;20050;-89
2021/10/22 04:35:43;;;;;;;10.80;8.63;;;15.60;96.70;;;;;;5106334;27;20066;-89
2021/10/22 04:40:54;;;;;;;11.35;8.27;;;15.70;96.70;;;;;;5104444;27;20044;-89
2021/10/22 04:43:23;;;;;;;9.27;8.13;;;15.70;96.70;;;;;;5105105;27;20688;-90
2021/10/22 04:45:52;;;;;;;9.57;8.32;;;15.70;96.70;;;;;;5100058;27;20043;-88
2021/10/22 04:48:23;;;;;;;8.65;7.55;;;15.70;96.70;;;;;;5083897;27;20497;-90
2021/10/22 04:50:51;;;;;;;7.97;6.75;;;15.70;96.70;;;;;;5124174;27;20043;-88
2021/10/22 04:53:27;;;;;;;13.55;7.80;;;15.70;96.70;;;;;;5098062;27;20039;-89
2021/10/22 04:55:59;;;;;;;9.68;7.70;;;15.70;96.70;;;;;;5085462;28;20040;-88
2021/10/22 04:58:28;;;;;;;10.93;7.68;;;15.70;96.70;;;;;;5122709;27;20096;-89
2021/10/22 05:01:00;;;;;;;9.63;6.82;;;15.70;96.70;;;;;;5102865;27;20047;-90
2021/10/22 05:03:30;;;;;;;8.27;6.70;;;15.70;96.70;;;;;;5104803;27;20035;-89
2021/10/22 05:05:59;;;;;;;10.68;6.93;;;15.70;96.70;;;;;;5089241;27;20457;-88
2021/10/22 05:08:28;;;;;;;7.50;6.25;;;15.70;96.70;;;;;;5104740;27;20047;-88
2021/10/22 05:10:57;;;;;;;8.57;7.63;;;15.80;96.70;;;;;;5105308;27;20124;-89
2021/10/22 05:13:25;;;;;;;11.23;7.35;;;15.80;96.70;;;;;;5122201;27;20138;-88
2021/10/22 05:15:53;;;;;;;7.78;6.97;;;15.70;96.70;;;;;;5104690;28;20480;-89
2021/10/22 05:18:22;;;;;;;8.18;6.85;;;15.80;96.70;;;;;;5101981;28;20035;-89
2021/10/22 05:20:51;;;;;;;10.48;7.13;;;15.80;96.70;;;;;;5117139;27;20126;-88
2021/10/22 05:23:20;;;;;;;8.95;6.90;;;15.80;96.70;;;;;;5105096;28;20034;-90
2021/10/22 05:25:48;;;;;;;8.60;7.00;;;15.80;96.70;;;;;;5119736;27;20032;-89
2021/10/22 05:28:16;;;;;;;8.65;6.47;;;15.90;96.70;;;;;;5106020;28;20859;-89
2021/10/22 05:30:45;;;;;;;8.00;7.03;;;15.90;96.70;;;;;;5121325;28;20134;-88
2021/10/22 05:33:14;;;;;;;8.55;6.97;;;15.90;96.70;;;;;;5120481;28;20039;-88
2021/10/22 05:35:42;;;;;;;12.60;7.32;;;15.90;96.70;;;;;;5105330;28;20710;-87
2021/10/22 05:38:12;;;;;;;9.57;6.35;;;15.90;96.70;;;;;;5088831;28;20462;-88
2021/10/22 05:40:41;;;;;;;10.80;6.97;;;15.90;96.70;;;;;;5101747;28;20044;-89
2021/10/22 05:43:09;;;;;;;7.88;6.90;;;15.90;96.70;;;;;;5100305;28;20523;-89
2021/10/22 05:45:37;;;;;;;8.50;7.47;;;15.90;96.70;;;;;;5098713;28;20044;-89
2021/10/22 05:48:06;;;;;;;8.10;7.22;;;15.90;96.70;;;;;;5104022;28;20103;-89
2021/10/22 05:50:34;;;;;;;7.65;6.80;;;15.90;96.70;;;;;;5097775;28;20477;-89
2021/10/22 05:53:03;;;;;;;10.63;7.53;;;15.90;96.70;;;;;;5092004;28;20131;-89
2021/10/22 05:55:32;;;;;;;8.85;6.88;;;15.90;96.70;;;;;;5081938;28;20043;-89
2021/10/22 05:58:00;;;;;;;10.52;7.38;;;15.90;96.70;;;;;;5103893;28;20126;-89
2021/10/22 06:00:29;;;;;;;7.72;6.68;;;15.90;96.70;;;;;;5105976;28;20387;-89
2021/10/22 06:02:58;;;;;;;12.10;7.85;;;15.80;96.70;;;;;;5103960;28;20046;-90
2021/10/22 06:05:26;;;;;;;9.23;7.82;;;15.80;96.70;;;;;;5103321;28;20089;-89
2021/10/22 06:07:55;;;;;;;10.45;7.97;;;15.80;96.70;;;;;;5089498;28;20495;-89
2021/10/22 06:10:23;;;;;;;11.50;8.65;;;15.80;96.70;;;;;;5104963;28;20040;-89
2021/10/22 06:12:55;;;;;;;17.08;10.30;;;15.90;96.70;;;;;;5106748;28;20040;-89
2021/10/22 06:15:23;;;;;;;12.27;10.05;;;15.90;96.70;;;;;;5106048;28;20067;-88
2021/10/22 06:17:53;;;;;;;12.35;10.18;;;15.90;96.70;;;;;;5102506;28;20070;-90
2021/10/22 06:20:28;;;;;;;13.77;10.35;;;15.90;96.70;;;;;;5088256;28;20048;-88
2021/10/22 06:25:40;;;;;;;12.27;10.65;;;15.90;96.70;;;;;;5106907;28;20039;-89
2021/10/22 06:28:11;;;;;;;13.98;10.77;;;15.90;96.70;;;;;;5105541;28;20039;-89
2021/10/22 06:30:39;;;;;;;13.85;10.60;;;15.90;96.70;;;;;;5105924;28;20122;-89
2021/10/22 06:33:08;;;;;;;14.52;10.30;;;15.90;96.70;;;;;;5087317;28;20778;-89
2021/10/22 06:35:37;;;;;;;14.45;11.23;;;15.90;96.70;;;;;;5106090;27;20139;-89
2021/10/22 06:38:05;;;;;;;12.35;10.68;;;15.90;96.70;;;;;;5070077;28;20387;-88
2021/10/22 06:40:34;;;;;;;15.02;10.45;;;15.90;96.70;;;;;;5101889;28;20076;-89
2021/10/22 06:43:02;;;;;;;13.45;10.13;;;15.90;96.70;;;;;;5069759;28;20040;-89
2021/10/22 06:45:32;;;;;;;13.10;11.05;;;15.90;96.70;;;;;;5067446;28;20152;-89
2021/10/22 06:48:00;;;;;;;13.43;10.65;;;16.00;96.70;;;;;;5083317;28;20044;-89
2021/10/22 06:50:29;;;;;;;14.10;10.52;;;16.00;96.70;;;;;;5086665;28;20036;-90
2021/10/22 06:52:57;;;;;;;14.27;11.43;;;16.00;96.70;;;;;;5084786;28;20056;-89
2021/10/22 06:55:26;;;;;;;14.95;10.90;;;16.00;96.70;;;;;;5086264;28;20123;-89
2021/10/22 06:57:54;;;;;;;14.63;10.80;;;16.10;96.70;;;;;;5078652;28;20385;-89
2021/10/22 07:00:22;;;;;;;14.48;11.15;;;16.10;96.70;;;;;;5066258;28;20494;-89
2021/10/22 07:02:54;;;;;;;15.40;11.00;;;16.10;96.70;;;;;;5065545;28;20074;-89
2021/10/22 07:08:26;;;;;;;13.32;9.70;;;16.10;96.70;;;;;;5035888;28;20047;-94
2021/10/22 07:10:55;;;;;;;16.27;10.10;;;16.20;96.70;;;;;;5054722;28;20113;-94
2021/10/22 07:13:23;;;;;;;11.57;9.23;;;16.20;96.70;;;;;;5062365;28;20051;-92
2021/10/22 07:15:52;;;;;;;11.35;9.45;;;16.20;96.70;;;;;;5066455;28;20044;-93
2021/10/22 07:18:22;;;;;;;16.67;9.50;;;16.20;96.70;;;;;;5065836;28;20044;-93
2021/10/22 07:20:50;;;;;;;14.77;9.70;;;16.30;96.70;;;;;;5077270;28;20040;-89
2021/10/22 07:23:19;;;;;;;12.38;9.63;;;16.30;96.70;;;;;;5066067;28;20124;-92
2021/10/22 07:25:47;;;;;;;12.52;10.13;;;16.30;96.70;;;;;;5085030;28;20089;-87
2021/10/22 07:28:16;;;;;;;11.80;9.70;;;16.40;96.70;;;;;;5084434;28;20044;-89
2021/10/22 07:30:48;;;;;;;13.20;9.85;;;16.40;96.70;;;;;;5083288;28;20059;-88
2021/10/22 07:33:16;;;;;;;13.55;10.75;;;16.40;96.70;;;;;;5083899;28;20037;-88
2021/10/22 07:35:46;;;;;;;14.63;9.93;;;16.50;96.70;;;;;;5084287;28;20127;-86
2021/10/22 07:38:14;;;;;;;13.23;10.13;;;16.50;96.70;;;;;;5103571;28;21263;-89
2021/10/22 07:40:45;;;;;;;11.65;9.88;;;16.50;96.70;;;;;;5077971;28;20056;-89
2021/10/22 07:43:15;;;;;;;12.85;9.88;;;16.50;96.70;;;;;;5101020;28;20067;-90
2021/10/22 07:45:43;;;;;;;11.75;10.02;;;16.60;96.70;;;;;;5100893;28;20127;-90
2021/10/22 07:48:11;;;;;;;13.43;10.27;;;16.70;96.70;;;;;;5098277;28;20070;-90
2021/10/22 07:50:41;;;;;;;12.30;10.73;;;16.70;96.70;;;;;;5080274;28;20536;-90
2021/10/22 07:53:11;;;;;;;17.58;13.90;;;16.80;96.70;;;;;;5102411;28;20051;-89
2021/10/22 07:55:40;;;;;;;13.63;12.23;;;16.80;96.70;;;;;;5102515;28;20044;-88
2021/10/22 07:58:09;;;;;;;14.18;12.30;;;16.90;96.70;;;;;;5103792;28;20047;-87
2021/10/22 08:00:37;;;;;;;14.30;11.50;;;16.90;96.70;;;;;;5081754;28;20039;-87
2021/10/22 08:03:05;;;;;;;16.13;12.40;;;17.00;96.70;;;;;;5104742;28;20915;-86
2021/10/22 08:05:34;;;;;;;13.82;10.75;;;17.00;96.70;;;;;;5087725;28;20107;-87
2021/10/22 08:08:03;;;;;;;14.05;11.77;;;17.00;96.70;;;;;;5087601;28;20052;-86
2021/10/22 08:10:33;;;;;;;13.90;12.10;;;17.00;96.70;;;;;;5087023;28;20049;-88
2021/10/22 08:13:02;;;;;;;16.23;11.85;;;17.00;96.70;;;;;;5081410;28;20135;-87
2021/10/22 08:15:40;;;;;;;14.18;11.15;;;17.10;96.70;;;;;;5086027;28;20067;-88
2021/10/22 08:18:10;;;;;;;15.18;12.35;;;17.10;96.70;;;;;;5099883;28;20055;-89
2021/10/22 08:20:44;;;;;;;12.63;10.98;;;17.10;96.70;;;;;;5088527;28;20571;-92
2021/10/22 08:23:17;;;;;;;13.18;11.35;;;17.20;96.70;;;;;;5124058;27;20040;-89
2021/10/22 08:25:48;;;;;;;14.38;10.88;;;17.20;96.70;;;;;;5106539;28;20162;-88
2021/10/22 08:28:17;;;;;;;15.93;11.82;;;17.30;96.70;;;;;;5103769;28;20073;-87
2021/10/22 08:30:54;;;;;;;15.70;11.73;;;17.30;96.70;;;;;;5101874;28;20040;-89
2021/10/22 08:33:24;;;;;;;13.32;11.45;;;17.40;96.70;;;;;;5102346;28;20047;-87
2021/10/22 08:35:52;;;;;;;12.32;10.95;;;17.50;96.70;;;;;;5103339;28;20050;-87
2021/10/22 08:38:21;;;;;;;17.50;12.00;;;17.60;96.70;;;;;;5085423;28;20062;-87
2021/10/22 08:40:53;;;;;;;13.80;10.88;;;17.70;96.70;;;;;;5102528;28;20040;-87
2021/10/22 08:43:21;;;;;;;14.40;10.55;;;17.80;96.70;;;;;;5086695;28;20134;-89
2021/10/22 08:45:52;;;;;;;15.15;10.50;;;17.90;96.70;;;;;;5102261;28;20134;-88
2021/10/22 08:48:21;;;;;;;15.77;9.93;;;18.00;96.70;;;;;;5101188;28;20047;-89
2021/10/22 08:50:49;;;;;;;12.63;10.13;;;18.00;96.70;;;;;;5085804;28;20043;-88
2021/10/22 08:53:17;;;;;;;18.00;11.77;;;18.00;96.70;;;;;;5098850;28;20122;-92
2021/10/22 08:55:46;;;;;;;14.75;11.10;;;18.00;96.70;;;;;;5102180;28;20489;-85
2021/10/22 08:58:19;;;;;;;15.65;11.32;;;18.10;96.70;;;;;;5100444;28;20027;-87
2021/10/22 09:00:47;;;;;;;15.63;11.95;;;18.20;96.70;;;;;;5101124;28;20035;-91
2021/10/22 09:03:18;;;;;;;18.65;11.25;;;18.30;96.70;;;;;;5103361;27;20028;-90
2021/10/22 09:05:58;;;;;;;15.10;10.82;;;18.60;96.70;;;;;;5102891;27;20078;-89
2021/10/22 09:08:31;;;;;;;13.65;10.80;;;18.70;96.70;;;;;;5096427;28;20028;-89
2021/10/22 09:11:00;;;;;;;12.52;10.63;;;18.80;96.70;;;;;;5080458;28;20077;-88
2021/10/22 09:13:32;;;;;;;14.18;10.52;;;19.00;96.70;;;;;;5102643;28;20059;-88
2021/10/22 09:16:18;;;;;;;13.25;10.80;;;19.10;96.70;;;;;;5097070;28;20047;-88
2021/10/22 09:18:47;;;;;;;11.10;9.48;;;19.10;96.70;;;;;;5085675;28;20051;-83
2021/10/22 09:21:24;;;;;;;12.10;9.95;;;19.10;96.70;;;;;;5101077;28;20044;-84
2021/10/22 09:23:53;;;;;;;11.23;8.38;;;19.10;96.70;;;;;;5098002;28;20063;-83
2021/10/22 09:26:30;;;;;;;13.77;9.32;;;19.10;96.70;;;;;;5102447;28;20042;-83
2021/10/22 09:29:14;;;;;;;9.98;8.10;;;19.10;96.70;;;;;;5095800;28;20532;-83
2021/10/22 09:31:46;;;;;;;11.65;8.18;;;19.10;96.70;;;;;;5100542;28;20064;-83
2021/10/22 09:34:29;;;;;;;10.50;7.50;;;19.10;96.70;;;;;;5082103;28;20044;-83
2021/10/22 09:36:58;;;;;;;8.93;6.72;;;19.30;96.70;;;;;;5104045;28;20039;-83
2021/10/22 09:39:32;;;;;;;8.85;7.30;;;19.40;96.70;;;;;;5084722;28;20071;-82
2021/10/22 09:42:01;;;;;;;9.80;6.22;;;19.50;96.70;;;;;;5102114;28;20040;-82
2021/10/22 09:44:37;;;;;;;9.13;6.07;;;19.40;96.70;;;;;;5102972;28;20051;-82
2021/10/22 09:47:20;;;;;;;9.65;5.82;;;19.60;96.70;;;;;;5102253;28;20032;-83
2021/10/22 09:49:53;;;;;;;7.75;6.18;;;19.80;96.70;;;;;;5099315;27;20052;-82
2021/10/22 09:52:23;;;;;;;11.43;6.03;;;20.00;96.70;;;;;;5087007;28;20138;-83
2021/10/22 09:55:08;;;;;;;8.90;5.90;;;20.20;96.70;;;;;;5101423;28;20046;-84
2021/10/22 09:57:37;;;;;;;7.25;5.68;;;20.30;96.70;;;;;;5084932;28;20139;-83
2021/10/22 10:00:10;;;;;;;8.95;5.45;;;20.30;96.70;;;;;;5102651;28;20117;-84
2021/10/22 10:02:39;;;;;;;7.45;6.10;;;20.30;96.70;;;;;;5086531;28;20165;-82
2021/10/22 10:05:12;;;;;;;9.70;5.50;;;20.40;96.70;;;;;;5095645;28;20264;-82
2021/10/22 10:07:41;;;;;;;6.93;5.68;;;20.40;96.70;;;;;;5106147;28;20039;-84
2021/10/22 10:10:11;;;;;;;10.50;6.65;;;20.30;96.70;;;;;;5097553;28;20046;-82
2021/10/22 10:12:40;;;;;;;9.07;5.53;;;20.30;96.70;;;;;;5121338;27;20054;-84
2021/10/22 10:15:12;;;;;;;10.73;6.20;;;20.40;96.70;;;;;;5104113;28;20543;-83
2021/10/22 10:17:45;;;;;;;9.05;5.97;;;20.40;96.70;;;;;;5105352;28;20074;-83
2021/10/22 10:20:18;;;;;;;7.20;5.65;;;20.40;96.70;;;;;;5086862;28;20051;-86
2021/10/22 10:22:48;;;;;;;10.82;6.55;;;20.50;96.70;;;;;;5104332;28;20044;-83
2021/10/22 10:25:19;;;;;;;9.50;6.25;;;20.50;96.70;;;;;;5104494;28;20044;-84
2021/10/22 10:27:50;;;;;;;6.05;5.45;;;20.80;96.70;;;;;;5113117;27;20482;-84
2021/10/22 10:30:29;;;;;;;8.52;6.25;;;20.80;96.70;;;;;;5103714;28;20068;-84
2021/10/22 10:32:58;;;;;;;9.82;6.47;;;20.70;96.70;;;;;;5081879;28;20409;-82
2021/10/22 10:35:33;;;;;;;10.73;6.00;;;20.80;96.70;;;;;;5103378;28;20050;-83
2021/10/22 10:38:02;;;;;;;7.05;5.50;;;21.00;96.70;;;;;;5122490;27;20051;-86
2021/10/22 10:40:31;;;;;;;8.25;5.80;;;21.10;96.70;;;;;;5125978;27;20059;-86
2021/10/22 10:43:01;;;;;;;6.80;5.78;;;21.00;96.70;;;;;;5104688;27;20053;-82
2021/10/22 10:45:44;;;;;;;6.65;5.13;;;21.00;96.70;;;;;;5107731;27;20051;-84
2021/10/22 10:48:18;;;;;;;8.05;5.30;;;20.90;96.70;;;;;;5125302;27;20043;-85
2021/10/22 10:50:51;;;;;;;8.52;5.22;;;20.90;96.70;;;;;;5125894;27;20062;-85
2021/10/22 10:53:31;;;;;;;5.95;4.45;;;20.90;96.70;;;;;;5099960;27;20506;-85
2021/10/22 10:56:02;;;;;;;7.60;5.18;;;20.90;96.70;;;;;;5090244;27;20055;-82
2021/10/22 10:58:39;;;;;;;7.20;4.45;;;20.80;96.70;;;;;;5102318;27;20035;-85
2021/10/22 11:01:24;;;;;;;6.18;4.45;;;20.90;96.70;;;;;;5090913;27;20134;-84
2021/10/22 11:03:53;;;;;;;6.32;4.13;;;20.90;96.70;;;;;;5106052;27;20493;-83
2021/10/22 11:06:38;;;;;;;6.65;4.38;;;21.20;96.70;;;;;;5107539;27;20047;-83
2021/10/22 11:09:06;;;;;;;7.60;4.00;;;21.40;96.70;;;;;;5124550;27;20051;-82
2021/10/22 11:11:37;;;;;;;7.00;4.63;;;21.30;96.70;;;;;;5105292;27;20049;-85
2021/10/22 11:14:16;;;;;;;6.13;4.00;;;21.20;96.70;;;;;;5101190;27;20082;-82
2021/10/22 11:16:57;;;;;;;6.95;4.63;;;21.20;96.70;;;;;;5088632;27;20039;-84
2021/10/22 11:19:31;;;;;;;5.78;4.10;;;21.10;96.70;;;;;;5087023;27;20481;-82
2021/10/22 11:22:04;;;;;;;5.47;4.00;;;21.10;96.70;;;;;;5124817;27;20633;-84
2021/10/22 11:24:34;;;;;;;6.47;3.85;;;21.30;96.70;;;;;;5107473;27;20119;-82
2021/10/22 11:27:05;;;;;;;5.82;3.90;;;21.50;96.70;;;;;;5104619;27;20039;-84
2021/10/22 11:29:35;;;;;;;4.85;3.60;;;21.50;96.70;;;;;;5102165;27;20122;-82
2021/10/22 11:32:09;;;;;;;6.13;3.90;;;21.50;96.70;;;;;;5105651;27;20043;-80
2021/10/22 11:34:39;;;;;;;4.30;3.78;;;21.60;96.70;;;;;;5121980;27;20153;-80
2021/10/22 11:37:09;;;;;;;4.65;3.53;;;21.60;96.70;;;;;;5088306;27;20051;-82
2021/10/22 11:39:39;;;;;;;5.53;3.70;;;21.60;96.70;;;;;;5088201;27;20047;-82
2021/10/22 11:42:10;;;;;;;4.85;3.42;;;21.70;96.70;;;;;;5105407;27;20507;-82
2021/10/22 11:44:39;;;;;;;7.20;3.13;;;21.80;96.70;;;;;;5103437;27;20529;-81
2021/10/22 11:47:10;;;;;;;5.15;3.17;;;21.80;96.70;;;;;;5104656;27;20043;-82
2021/10/22 11:49:38;;;;;;;5.30;3.17;;;21.90;96.70;;;;;;5124671;27;20035;-81
2021/10/22 11:52:11;;;;;;;7.28;3.28;;;21.90;96.70;;;;;;5083297;27;20043;-83
2021/10/22 11:54:42;;;;;;;4.47;2.90;;;21.80;96.70;;;;;;5089638;27;20076;-83
2021/10/22 11:57:13;;;;;;;6.05;3.58;;;22.00;96.70;;;;;;5106156;27;20035;-82
2021/10/22 11:59:45;;;;;;;6.30;3.38;;;22.10;96.70;;;;;;5106610;27;20130;-82
2021/10/22 12:02:17;;;;;;;5.95;3.40;;;22.30;96.70;;;;;;5105913;27;20050;-82
2021/10/22 12:04:46;;;;;;;5.05;3.58;;;22.30;96.70;;;;;;5105264;27;20493;-81
2021/10/22 12:07:15;;;;;;;7.68;3.40;;;22.50;96.70;;;;;;5105461;27;20100;-83
2021/10/22 12:09:43;;;;;;;4.43;3.47;;;22.60;96.70;;;;;;5101300;27;20404;-82
2021/10/22 12:12:14;;;;;;;4.53;2.90;;;22.50;96.70;;;;;;5106970;27;20109;-83
2021/10/22 12:14:45;;;;;;;5.85;3.92;;;22.60;96.70;;;;;;5123517;27;20572;-81
2021/10/22 12:17:18;;;;;;;5.45;2.78;;;22.70;96.70;;;;;;5112824;27;20054;-81
2021/10/22 12:19:48;;;;;;;4.10;3.03;;;22.80;96.70;;;;;;5123502;27;20046;-83
2021/10/22 12:22:23;;;;;;;5.95;3.25;;;22.80;96.70;;;;;;5122669;27;20118;-82
2021/10/22 12:24:54;;;;;;;7.60;3.13;;;22.90;96.70;;;;;;5122973;27;20046;-81
2021/10/22 12:27:25;;;;;;;4.68;3.25;;;22.90;96.70;;;;;;5124757;27;20449;-82
2021/10/22 12:29:58;;;;;;;5.22;3.10;;;23.00;96.70;;;;;;5122838;27;20039;-82
2021/10/22 12:32:32;;;;;;;3.80;2.58;;;23.10;96.70;;;;;;5122927;27;20122;-84
2021/10/22 12:35:02;;;;;;;3.78;2.65;;;23.20;96.70;;;;;;5122441;27;20039;-83
2021/10/22 12:37:38;;;;;;;6.13;2.75;;;23.20;96.70;;;;;;5089870;27;20055;-84
2021/10/22 12:40:22;;;;;;;5.53;2.60;;;23.30;96.70;;;;;;5121767;27;20050;-83
2021/10/22 12:43:19;;;;;;;4.80;2.55;;;23.40;96.70;;;;;;5097151;27;20198;-82
2021/10/22 12:45:57;;;;;;;6.30;2.70;;;23.40;96.70;;;;;;5106958;27;20039;-84
2021/10/22 12:48:29;;;;;;;5.10;2.67;;;23.50;96.70;;;;;;5096709;27;20129;-83
2021/10/22 12:51:07;;;;;;;4.40;2.92;;;23.60;96.70;;;;;;5105043;27;20071;-83
2021/10/22 12:53:40;;;;;;;5.18;2.70;;;23.60;96.70;;;;;;5082552;28;20101;-83
2021/10/22 12:56:11;;;;;;;5.53;2.17;;;23.50;96.70;;;;;;5104250;28;20047;-83
2021/10/22 12:58:41;;;;;;;3.55;2.55;;;23.40;96.70;;;;;;5099918;27;20143;-82